• Join FlightAware (Why Join?)
  • Login
  • US Flag 
Rudolph Flight #1: Arrived! 
08:27AM EST


 

Airport Tracker/Info


-or-


 

Live Flight TrackerFlight Track Log ✈ N25572 ✈ 12-Sep-2013 ✈ KDAB - KDAB

Flight Track Log - Related Links

Times and Time Zones

All times are in EDT time to prevent confusion due to time zone crossing. See the N25572 flight status page for this flight to view local times or setup timezone preferences in your user account.

Time Position Orientation Groundspeed Altitude Reporting Facility
EDT Latitude Longitude Course Direction KTS MPH feet Rate Location/Type
07:45PM 29.1844 -81.0469 38° Northeast 67 77 400  Level Jacksonville Center
07:46PM 29.1925 -81.0397 38° Northeast 67 77 600 420 Climbing Jacksonville Center
07:47PM 29.2133 -81.0344 12° North 72 83 1,100 420 Climbing Jacksonville Center
07:48PM 29.2322 -81.0294 13° North 68 78 1,500 360 Climbing Jacksonville Center
07:49PM 29.2469 -81.0433 321° Northwest 75 86 1,900 240 Climbing Jacksonville Center
07:50PM 29.2514 -81.0669 282° West 90 104 2,000  Climbing Jacksonville Center
07:51PM 29.2539 -81.0981 275° West 95 109 2,000 -240 Level Jacksonville Center
07:52PM 29.2461 -81.1267 253° West 95 109 1,600 -180 Descending Jacksonville Center
07:53PM 29.2339 -81.1531 242° Southwest 91 105 1,700  Climbing Jacksonville Center
07:54PM 29.2153 -81.1725 222° Southwest 92 106 1,700  Level Jacksonville Center
07:55PM 29.2008 -81.1917 229° Southwest 90 104 1,700 -120 Level Jacksonville Center
07:56PM 29.1761 -81.2136 218° Southwest 90 104 1,500 -300 Descending Jacksonville Center
07:57PM 29.1575 -81.2233 205° Southwest 91 105 1,100 -300 Descending Jacksonville Center
07:58PM 29.1433 -81.2472 236° Southwest 88 101 1,000 60 Descending Jacksonville Center
07:59PM 29.1267 -81.2642 222° Southwest 84 97 1,300 240 Climbing Jacksonville Center
08:00PM 29.1058 -81.2717 197° South 85 98 1,500 -180 Climbing Jacksonville Center
08:01PM 29.0811 -81.2889 211° Southwest 96 110 1,000 -300 Descending Jacksonville Center
08:02PM 29.0581 -81.2892 181° South 82 94 900 120 Descending Jacksonville Center
08:03PM 29.0542 -81.3131 259° West 82 94 1,300 360 Climbing Jacksonville Center
08:04PM 29.0608 -81.3367 288° West 76 87 1,700 360 Climbing Jacksonville Center
08:05PM 29.0694 -81.3556 298° West 78 90 2,100 120 Climbing Jacksonville Center
08:06PM 29.0944 -81.3575 356° North 92 106 2,000 -120 Descending Jacksonville Center
08:07PM 29.1194 -81.3594 356° North 91 105 1,900  Descending Jacksonville Center
08:08PM 29.1339 -81.3403 49° Northeast 84 97 2,000  Climbing Jacksonville Center
08:09PM 29.1317 -81.3142 96° East 77 89 2,000  Level Jacksonville Center
08:10PM 29.1167 -81.2978 136° Southeast 77 89 2,000 -120 Level Jacksonville Center
08:11PM 29.1061 -81.2764 119° Southeast 80 92 1,800 -300 Descending Jacksonville Center
08:12PM 29.0975 -81.2553 115° Southeast 74 85 1,500 -60 Descending Jacksonville Center
08:13PM 29.1056 -81.2336 67° East 79 91 1,700 60 Climbing Jacksonville Center
08:14PM 29.1178 -81.2097 60° Northeast 87 100 1,700 -60 Level Jacksonville Center
08:15PM 29.1300 -81.1858 60° Northeast 83 96 1,600 -120 Descending Jacksonville Center
08:16PM 29.1381 -81.1619 69° East 82 94 1,500 -240 Descending Jacksonville Center
08:17PM 29.1461 -81.1403 67° East 75 86 1,200 -360 Descending Jacksonville Center
08:18PM 29.1561 -81.1164 64° Northeast 82 94 800 -420 Descending Jacksonville Center
08:19PM 29.1642 -81.0925 69° East 77 89 400 -420 Descending Jacksonville Center
08:21PM 29.1660 -81.0615 86° East  Level FlightAware Approximate